Time;durP1;ratioP1;P1;durP2;ratioP2;P2;SDS_P1;SDS_P2;PMS_P1;PMS_P2;Temp;Humidity;BMP_temperature;BMP_pressure;BME280_temperature;BME280_humidity;BME280_pressure;Samples;Min_cycle;Max_cycle;Signal;HPM_P1;HPM_P2
2021/10/08 00:00:08;;;;;;;35.83;19.95;;;8.80;99.90;;;;;;5032155;28;20513;-75
2021/10/08 00:02:34;;;;;;;38.33;20.50;;;8.70;99.90;;;;;;5031180;28;20375;-75
2021/10/08 00:04:59;;;;;;;37.50;21.23;;;8.60;99.90;;;;;;5025561;28;20397;-74
2021/10/08 00:07:25;;;;;;;35.57;20.37;;;8.60;99.90;;;;;;5011629;28;20424;-75
2021/10/08 00:09:51;;;;;;;36.53;20.00;;;8.60;99.90;;;;;;5010722;28;20789;-75
2021/10/08 00:12:16;;;;;;;36.47;19.80;;;8.50;99.90;;;;;;5011455;28;20385;-75
2021/10/08 00:14:42;;;;;;;38.50;21.00;;;8.50;99.90;;;;;;5019904;28;20475;-75
2021/10/08 00:17:07;;;;;;;38.07;20.17;;;8.40;99.90;;;;;;5011213;28;20443;-76
2021/10/08 00:19:33;;;;;;;37.70;20.60;;;8.40;99.90;;;;;;5011471;28;20432;-76
2021/10/08 00:21:58;;;;;;;37.83;19.97;;;8.40;99.90;;;;;;5024431;28;20470;-75
2021/10/08 00:24:24;;;;;;;38.03;20.10;;;8.40;99.90;;;;;;5051668;28;20833;-75
2021/10/08 00:26:50;;;;;;;36.03;18.97;;;8.30;99.90;;;;;;5056441;28;20431;-77
2021/10/08 00:29:15;;;;;;;37.23;19.77;;;8.30;99.90;;;;;;5045044;28;20403;-75
2021/10/08 00:31:41;;;;;;;37.93;19.80;;;8.30;99.90;;;;;;5043363;28;20391;-75
2021/10/08 00:34:07;;;;;;;36.20;19.00;;;8.40;99.90;;;;;;5044055;28;20402;-75
2021/10/08 00:36:32;;;;;;;40.30;20.70;;;8.40;99.90;;;;;;5033685;28;20480;-75
2021/10/08 00:38:58;;;;;;;37.17;19.60;;;8.30;99.90;;;;;;5026478;28;20504;-76
2021/10/08 00:41:24;;;;;;;39.30;19.85;;;8.30;99.90;;;;;;5031248;28;20403;-75
2021/10/08 00:43:52;;;;;;;39.17;20.08;;;8.30;99.90;;;;;;5041387;28;20383;-77
2021/10/08 00:46:17;;;;;;;34.77;19.20;;;8.20;99.90;;;;;;5028626;28;20488;-76
2021/10/08 00:48:43;;;;;;;36.53;18.57;;;8.20;99.90;;;;;;5036379;28;20445;-76
2021/10/08 00:51:09;;;;;;;40.40;20.17;;;8.20;99.90;;;;;;5036857;28;20872;-76
2021/10/08 00:53:34;;;;;;;35.90;18.83;;;8.10;99.90;;;;;;5033990;28;20379;-77
2021/10/08 00:56:01;;;;;;;38.00;19.90;;;8.10;99.90;;;;;;5031670;28;20406;-76
2021/10/08 00:58:27;;;;;;;37.67;18.92;;;8.10;99.90;;;;;;5032244;28;20393;-77
2021/10/08 01:00:53;;;;;;;36.77;18.20;;;8.00;99.90;;;;;;5033033;28;20880;-76
2021/10/08 01:03:20;;;;;;;39.07;20.20;;;8.00;99.90;;;;;;5031463;28;20391;-76
2021/10/08 01:05:47;;;;;;;34.28;18.30;;;8.00;99.90;;;;;;5012140;28;20502;-75
2021/10/08 01:08:12;;;;;;;35.22;19.08;;;8.00;99.90;;;;;;5019410;28;20471;-77
2021/10/08 01:10:40;;;;;;;33.93;18.90;;;8.00;99.90;;;;;;5034429;28;20427;-77
2021/10/08 01:13:07;;;;;;;37.03;18.73;;;8.00;99.90;;;;;;5040350;28;20394;-75
2021/10/08 01:15:33;;;;;;;34.53;18.88;;;8.00;99.90;;;;;;5037094;28;20417;-75
2021/10/08 01:17:59;;;;;;;32.83;17.95;;;8.00;99.90;;;;;;5034240;28;20399;-75
2021/10/08 01:20:25;;;;;;;34.77;19.13;;;8.10;99.90;;;;;;5034121;28;20434;-75
2021/10/08 01:22:53;;;;;;;33.47;18.70;;;8.10;99.90;;;;;;5046033;28;20408;-76
2021/10/08 01:25:19;;;;;;;37.88;18.67;;;8.00;99.90;;;;;;5054277;28;20387;-75
2021/10/08 01:27:44;;;;;;;36.08;18.50;;;8.00;99.90;;;;;;5054733;28;20878;-76
2021/10/08 01:30:11;;;;;;;32.97;17.57;;;7.90;99.90;;;;;;5049504;28;20466;-75
2021/10/08 01:32:37;;;;;;;33.83;18.40;;;8.20;99.90;;;;;;5028104;28;20846;-77
2021/10/08 01:35:04;;;;;;;35.78;18.50;;;8.20;99.90;;;;;;5025818;28;20925;-75
2021/10/08 01:37:30;;;;;;;36.42;18.40;;;8.10;99.90;;;;;;5034449;28;20394;-76
2021/10/08 01:39:55;;;;;;;32.47;18.65;;;8.10;99.90;;;;;;5036220;28;20383;-76
2021/10/08 01:42:21;;;;;;;36.95;18.98;;;8.10;99.90;;;;;;5034741;28;20387;-75
2021/10/08 01:44:47;;;;;;;33.15;17.73;;;7.90;99.90;;;;;;5034358;28;20407;-76
2021/10/08 01:47:12;;;;;;;32.97;18.38;;;7.90;99.90;;;;;;5035842;28;20405;-75
2021/10/08 01:49:38;;;;;;;37.07;18.37;;;7.90;99.90;;;;;;5042480;28;20783;-76
2021/10/08 01:52:05;;;;;;;33.70;17.83;;;7.80;99.90;;;;;;5035713;28;20403;-76
2021/10/08 01:54:31;;;;;;;28.90;16.50;;;7.70;99.90;;;;;;5034124;28;20394;-75
2021/10/08 01:56:59;;;;;;;32.43;16.40;;;7.70;99.90;;;;;;5034491;28;20875;-75
2021/10/08 01:59:24;;;;;;;31.13;16.43;;;7.70;99.90;;;;;;5034463;28;20379;-75
2021/10/08 02:01:50;;;;;;;35.70;17.75;;;7.70;99.90;;;;;;5045066;28;20387;-74
2021/10/08 02:04:16;;;;;;;32.13;15.85;;;7.70;99.90;;;;;;5039720;28;20868;-76
2021/10/08 02:06:41;;;;;;;33.78;16.02;;;7.70;99.90;;;;;;5045583;28;20399;-76
2021/10/08 02:09:08;;;;;;;31.42;16.02;;;7.70;99.90;;;;;;5043855;28;20398;-75
2021/10/08 02:11:33;;;;;;;31.65;17.08;;;7.70;99.90;;;;;;5037756;28;20426;-74
2021/10/08 02:13:59;;;;;;;34.05;16.75;;;7.80;99.90;;;;;;5033893;28;20777;-75
2021/10/08 02:16:25;;;;;;;27.95;16.40;;;7.90;99.90;;;;;;5033719;28;20406;-76
2021/10/08 02:18:54;;;;;;;32.23;16.27;;;7.80;99.90;;;;;;5027338;28;20396;-75
2021/10/08 02:21:23;;;;;;;28.33;16.60;;;7.80;99.90;;;;;;5033554;28;20379;-76
2021/10/08 02:23:49;;;;;;;33.13;16.67;;;7.80;99.90;;;;;;5052951;28;20384;-76
2021/10/08 02:26:14;;;;;;;30.83;16.45;;;7.70;99.90;;;;;;5053323;28;20385;-76
2021/10/08 02:28:41;;;;;;;36.35;16.48;;;7.70;99.90;;;;;;5053424;28;20416;-76
2021/10/08 02:31:06;;;;;;;32.20;16.45;;;7.60;99.90;;;;;;5037220;28;20391;-76
2021/10/08 02:33:34;;;;;;;27.70;15.73;;;7.70;99.90;;;;;;5031394;28;20898;-76
2021/10/08 02:36:04;;;;;;;31.48;15.77;;;7.60;99.90;;;;;;5032987;28;20420;-76
2021/10/08 02:38:30;;;;;;;38.92;17.70;;;7.60;99.90;;;;;;5022132;28;20580;-76
2021/10/08 02:40:56;;;;;;;32.65;16.15;;;7.60;99.90;;;;;;5013350;28;20870;-76
2021/10/08 02:43:21;;;;;;;30.33;15.75;;;7.60;99.90;;;;;;5025122;28;20394;-76
2021/10/08 02:45:47;;;;;;;29.58;15.60;;;7.50;99.90;;;;;;5032567;28;20403;-76
2021/10/08 02:48:12;;;;;;;29.80;16.13;;;7.50;99.90;;;;;;5033220;28;20402;-76
2021/10/08 02:50:38;;;;;;;27.75;15.77;;;7.40;99.90;;;;;;5032978;28;20383;-76
2021/10/08 02:53:03;;;;;;;36.97;18.25;;;7.40;99.90;;;;;;5032838;28;20466;-76
2021/10/08 02:55:29;;;;;;;31.83;16.63;;;7.40;99.90;;;;;;5032739;28;20411;-75
2021/10/08 02:57:55;;;;;;;29.30;16.30;;;7.40;99.90;;;;;;5032921;28;20402;-76
2021/10/08 03:00:20;;;;;;;28.42;15.55;;;7.40;99.90;;;;;;5029258;28;20390;-76
2021/10/08 03:02:46;;;;;;;33.63;16.02;;;7.40;99.90;;;;;;5032444;28;20394;-76
2021/10/08 03:05:11;;;;;;;32.13;16.02;;;7.40;99.90;;;;;;5033016;28;20411;-76
2021/10/08 03:07:38;;;;;;;28.50;15.38;;;7.40;99.90;;;;;;5032968;28;20390;-75
2021/10/08 03:10:09;;;;;;;27.95;15.20;;;7.30;99.90;;;;;;5032781;28;20394;-75
2021/10/08 03:12:35;;;;;;;28.92;14.93;;;7.30;99.90;;;;;;5032247;28;20388;-75
2021/10/08 03:15:01;;;;;;;28.35;15.32;;;7.30;99.90;;;;;;5027236;28;20900;-75
2021/10/08 03:17:26;;;;;;;28.50;16.60;;;7.30;99.90;;;;;;5032150;28;20402;-76
2021/10/08 03:19:52;;;;;;;26.07;14.40;;;7.30;99.90;;;;;;5032352;28;20391;-76
2021/10/08 03:22:18;;;;;;;28.53;14.97;;;7.30;99.90;;;;;;5034838;28;20397;-76
2021/10/08 03:24:44;;;;;;;31.65;16.42;;;7.30;99.90;;;;;;5020682;28;20433;-76
2021/10/08 03:27:10;;;;;;;25.65;14.98;;;7.30;99.90;;;;;;5012700;28;20862;-76
2021/10/08 03:29:36;;;;;;;28.30;14.97;;;7.20;99.90;;;;;;5019684;28;20400;-75
2021/10/08 03:32:01;;;;;;;30.25;15.57;;;7.30;99.90;;;;;;5011964;28;20874;-76
2021/10/08 03:34:27;;;;;;;27.08;14.65;;;7.30;99.90;;;;;;5012563;28;20926;-76
2021/10/08 03:36:55;;;;;;;27.63;14.43;;;7.30;99.90;;;;;;5012845;28;20423;-76
2021/10/08 03:39:23;;;;;;;29.70;15.60;;;7.30;99.90;;;;;;5012701;28;20431;-76
2021/10/08 03:41:51;;;;;;;27.15;13.88;;;7.30;99.90;;;;;;5012330;28;20926;-75
2021/10/08 03:44:17;;;;;;;25.63;13.90;;;7.30;99.90;;;;;;5029109;28;20479;-76
2021/10/08 03:46:47;;;;;;;31.08;14.98;;;7.20;99.90;;;;;;5032123;28;20543;-75
2021/10/08 03:49:15;;;;;;;26.58;14.52;;;7.20;99.90;;;;;;5031175;28;20394;-76
2021/10/08 03:51:42;;;;;;;29.37;15.77;;;7.30;99.90;;;;;;5037509;28;20449;-76
2021/10/08 03:54:07;;;;;;;30.85;15.60;;;7.50;99.90;;;;;;5036622;28;20387;-77
2021/10/08 03:56:33;;;;;;;31.33;15.38;;;7.50;99.90;;;;;;5036522;28;20577;-77
2021/10/08 03:58:59;;;;;;;29.17;14.67;;;7.40;99.90;;;;;;5036435;28;20472;-77
2021/10/08 04:01:25;;;;;;;32.05;15.65;;;7.30;99.90;;;;;;5033523;28;20383;-74
2021/10/08 04:03:50;;;;;;;28.60;14.77;;;7.20;99.90;;;;;;5031459;28;20388;-75
2021/10/08 04:06:17;;;;;;;27.23;15.07;;;7.20;99.90;;;;;;5031328;28;20876;-75
2021/10/08 04:08:43;;;;;;;29.20;14.68;;;7.20;99.90;;;;;;5031085;28;20934;-74
2021/10/08 04:11:09;;;;;;;26.63;14.60;;;7.20;99.90;;;;;;5031048;28;20438;-74
2021/10/08 04:13:35;;;;;;;26.05;15.13;;;7.20;99.90;;;;;;5029497;28;20461;-75
2021/10/08 04:16:01;;;;;;;29.57;15.80;;;7.20;99.90;;;;;;5031321;28;20403;-75
2021/10/08 04:18:26;;;;;;;26.77;14.30;;;7.10;99.90;;;;;;5027514;28;20402;-75
2021/10/08 04:20:52;;;;;;;27.70;14.68;;;7.10;99.90;;;;;;5033250;28;20394;-76
2021/10/08 04:23:18;;;;;;;30.30;15.10;;;7.10;99.90;;;;;;5056218;28;20436;-77
2021/10/08 04:25:44;;;;;;;27.70;14.70;;;7.10;99.90;;;;;;5058841;28;20457;-75
2021/10/08 04:28:09;;;;;;;31.38;16.45;;;7.30;99.90;;;;;;5047640;28;20387;-76
2021/10/08 04:30:35;;;;;;;30.58;16.00;;;7.30;99.90;;;;;;5035430;28;20414;-76
2021/10/08 04:33:02;;;;;;;28.98;14.80;;;7.40;99.90;;;;;;5028355;28;20395;-76
2021/10/08 04:35:27;;;;;;;33.88;16.63;;;7.40;99.90;;;;;;5030043;28;20414;-76
2021/10/08 04:37:53;;;;;;;33.03;17.20;;;7.30;99.90;;;;;;5029929;28;20445;-75
2021/10/08 04:40:19;;;;;;;29.08;15.43;;;7.30;99.90;;;;;;5030336;28;20394;-76
2021/10/08 04:42:45;;;;;;;31.50;15.50;;;7.30;99.90;;;;;;5030162;28;20448;-74
2021/10/08 04:45:10;;;;;;;36.08;17.00;;;7.30;99.90;;;;;;5031293;28;20391;-75
2021/10/08 04:47:36;;;;;;;28.85;16.02;;;7.20;99.90;;;;;;5033062;28;20931;-74
2021/10/08 04:50:02;;;;;;;32.40;15.57;;;7.20;99.90;;;;;;5030656;28;20383;-74
2021/10/08 04:52:28;;;;;;;33.00;15.18;;;7.10;99.90;;;;;;5030648;28;20386;-74
2021/10/08 04:54:53;;;;;;;28.07;15.50;;;7.10;99.90;;;;;;5030403;28;20401;-74
2021/10/08 04:57:19;;;;;;;28.27;15.70;;;7.00;99.90;;;;;;5030619;28;20395;-75
2021/10/08 04:59:45;;;;;;;29.60;15.70;;;7.00;99.90;;;;;;5031589;28;20394;-76
2021/10/08 05:02:10;;;;;;;24.13;14.10;;;7.00;99.90;;;;;;5030674;28;20386;-75
2021/10/08 05:04:36;;;;;;;27.60;15.70;;;6.90;99.90;;;;;;5030566;28;20383;-75
2021/10/08 05:07:02;;;;;;;31.48;15.90;;;6.90;99.90;;;;;;5030597;28;20749;-74
2021/10/08 05:09:28;;;;;;;32.80;15.57;;;7.00;99.90;;;;;;5030338;28;20489;-73
2021/10/08 05:11:53;;;;;;;33.33;15.90;;;7.00;99.90;;;;;;5030198;28;20395;-75
2021/10/08 05:14:19;;;;;;;28.23;14.83;;;7.00;99.90;;;;;;5024088;28;20479;-73
2021/10/08 05:16:44;;;;;;;33.47;15.27;;;7.00;99.90;;;;;;5013843;28;20440;-74
2021/10/08 05:19:10;;;;;;;29.27;15.33;;;7.00;99.90;;;;;;5011768;28;20389;-75
2021/10/08 05:21:36;;;;;;;26.27;14.00;;;6.90;99.90;;;;;;5013743;28;20919;-75
2021/10/08 05:24:01;;;;;;;30.20;15.27;;;6.90;99.90;;;;;;5038473;28;20391;-75
2021/10/08 05:26:27;;;;;;;26.37;15.40;;;6.90;99.90;;;;;;5029078;28;20394;-76
2021/10/08 05:28:53;;;;;;;25.33;14.60;;;6.90;99.90;;;;;;5030680;28;20452;-75
2021/10/08 05:31:18;;;;;;;32.75;16.15;;;6.80;99.90;;;;;;5029962;28;20393;-76
2021/10/08 05:33:44;;;;;;;26.97;16.10;;;6.90;99.90;;;;;;5030279;28;20399;-74
2021/10/08 05:36:10;;;;;;;30.53;16.20;;;6.90;99.90;;;;;;5030414;28;20406;-74
2021/10/08 05:38:35;;;;;;;36.50;16.23;;;6.90;99.90;;;;;;5029346;28;20403;-74
2021/10/08 05:41:01;;;;;;;30.90;15.37;;;7.00;99.90;;;;;;5029919;28;20392;-75
2021/10/08 05:43:27;;;;;;;27.05;15.00;;;7.00;99.90;;;;;;5025287;28;20424;-75
2021/10/08 05:45:54;;;;;;;28.10;15.95;;;7.00;99.90;;;;;;5010979;28;20396;-74
2021/10/08 05:48:20;;;;;;;30.65;16.45;;;7.10;99.90;;;;;;5026666;28;20872;-75
2021/10/08 05:50:45;;;;;;;31.33;15.60;;;7.40;99.90;;;;;;5030230;28;20455;-75
2021/10/08 05:53:11;;;;;;;28.97;15.40;;;7.40;99.90;;;;;;5029805;28;20402;-76
2021/10/08 05:55:38;;;;;;;28.13;14.68;;;7.40;99.90;;;;;;5032242;28;20418;-74
2021/10/08 05:58:06;;;;;;;28.23;14.80;;;7.40;99.90;;;;;;5034156;28;20382;-73
2021/10/08 06:00:32;;;;;;;26.37;14.90;;;7.30;99.90;;;;;;5034168;28;20514;-74
2021/10/08 06:02:58;;;;;;;28.13;15.40;;;7.20;99.90;;;;;;5034329;28;20383;-74
2021/10/08 06:05:23;;;;;;;27.15;14.43;;;7.30;99.90;;;;;;5033878;28;20461;-73
2021/10/08 06:07:49;;;;;;;29.38;14.77;;;7.30;99.90;;;;;;5033670;28;20394;-74
2021/10/08 06:10:15;;;;;;;23.27;14.15;;;7.50;99.90;;;;;;5028019;28;20396;-74
2021/10/08 06:12:41;;;;;;;31.40;15.40;;;7.40;99.90;;;;;;5013950;28;20431;-73
2021/10/08 06:15:08;;;;;;;24.00;14.27;;;7.50;99.90;;;;;;5014137;28;20403;-73
2021/10/08 06:17:34;;;;;;;31.05;16.77;;;7.50;99.90;;;;;;5012867;28;20404;-75
2021/10/08 06:19:59;;;;;;;31.10;14.80;;;7.50;99.90;;;;;;5014032;28;20421;-76
2021/10/08 06:22:25;;;;;;;26.73;14.50;;;7.40;99.90;;;;;;5023198;28;20397;-74
2021/10/08 06:24:50;;;;;;;28.20;14.53;;;7.50;99.90;;;;;;5025562;28;20734;-74
2021/10/08 06:27:16;;;;;;;26.30;15.03;;;7.60;99.90;;;;;;5013859;28;20412;-75
2021/10/08 06:29:41;;;;;;;27.33;16.10;;;7.80;99.90;;;;;;5017802;28;20490;-75
2021/10/08 06:32:07;;;;;;;32.30;14.67;;;7.70;99.90;;;;;;5033515;28;20421;-75
2021/10/08 06:34:34;;;;;;;24.70;15.33;;;7.70;99.90;;;;;;5030014;28;20416;-74
2021/10/08 06:36:59;;;;;;;26.85;15.23;;;7.80;99.90;;;;;;5047584;28;20425;-76
2021/10/08 06:39:25;;;;;;;28.13;14.80;;;7.80;99.90;;;;;;5050580;28;20387;-77
2021/10/08 06:41:51;;;;;;;26.20;14.20;;;7.90;99.90;;;;;;5032644;28;20376;-77
2021/10/08 06:44:17;;;;;;;29.88;14.77;;;8.10;99.90;;;;;;5041735;28;20401;-76
2021/10/08 06:46:43;;;;;;;25.20;15.32;;;8.20;99.90;;;;;;5027450;28;20446;-75
2021/10/08 06:49:10;;;;;;;29.30;14.88;;;8.20;99.90;;;;;;5027260;28;20409;-75
2021/10/08 06:51:36;;;;;;;33.85;16.00;;;8.20;99.90;;;;;;5034217;28;20430;-74
2021/10/08 06:54:02;;;;;;;24.80;15.20;;;8.30;99.90;;;;;;5034909;28;20864;-74
2021/10/08 06:56:29;;;;;;;23.20;14.10;;;8.50;99.90;;;;;;5020861;28;20502;-74
2021/10/08 06:58:55;;;;;;;24.70;13.95;;;8.50;99.90;;;;;;5036957;28;20467;-74
2021/10/08 07:01:21;;;;;;;22.40;13.52;;;8.60;99.90;;;;;;5033229;28;20405;-75
2021/10/08 07:03:46;;;;;;;25.13;14.80;;;8.70;99.90;;;;;;5030885;28;20395;-75
2021/10/08 07:06:12;;;;;;;31.50;15.70;;;9.00;99.90;;;;;;5017741;28;20423;-77
2021/10/08 07:08:37;;;;;;;24.17;14.77;;;9.10;99.90;;;;;;5019791;28;20794;-75
2021/10/08 07:11:03;;;;;;;27.30;15.10;;;9.40;99.90;;;;;;5030915;28;20462;-75
2021/10/08 07:13:28;;;;;;;28.20;15.53;;;9.40;99.90;;;;;;5039326;28;20387;-74
2021/10/08 07:15:56;;;;;;;30.17;15.67;;;9.40;99.90;;;;;;5040527;28;20417;-76
2021/10/08 07:18:24;;;;;;;25.80;15.43;;;9.50;99.90;;;;;;5033386;28;20398;-75
2021/10/08 07:20:50;;;;;;;29.95;16.55;;;9.50;99.90;;;;;;5032574;28;20389;-74
2021/10/08 07:23:16;;;;;;;32.67;15.93;;;9.80;99.90;;;;;;5046026;28;20457;-75
2021/10/08 07:25:42;;;;;;;30.02;15.80;;;10.00;99.90;;;;;;5028772;28;20399;-75
2021/10/08 07:28:07;;;;;;;30.47;16.50;;;10.20;97.70;;;;;;5020305;28;20413;-75
2021/10/08 07:30:33;;;;;;;29.53;16.00;;;10.30;98.50;;;;;;5028464;28;20443;-76
2021/10/08 07:32:58;;;;;;;28.80;15.40;;;10.40;96.50;;;;;;5032874;28;20423;-76
2021/10/08 07:35:24;;;;;;;32.37;16.43;;;10.50;93.10;;;;;;5018978;28;20910;-76
2021/10/08 07:37:49;;;;;;;28.38;16.50;;;10.50;92.30;;;;;;5028324;28;20712;-76
2021/10/08 07:40:15;;;;;;;26.90;16.20;;;10.70;92.50;;;;;;5032168;28;20383;-76
2021/10/08 07:42:42;;;;;;;28.90;15.45;;;10.70;90.80;;;;;;5031680;28;20445;-76
2021/10/08 07:45:10;;;;;;;26.15;15.77;;;10.80;90.20;;;;;;5026066;28;20413;-75
2021/10/08 07:47:36;;;;;;;22.42;14.15;;;10.90;87.10;;;;;;5026099;28;20399;-77
2021/10/08 07:50:03;;;;;;;22.23;14.35;;;11.20;77.80;;;;;;5034146;28;20407;-77
2021/10/08 07:52:29;;;;;;;24.23;13.85;;;11.40;71.70;;;;;;5031628;28;20399;-74
2021/10/08 07:54:54;;;;;;;21.73;14.07;;;11.50;69.00;;;;;;5026985;28;20767;-74
2021/10/08 07:57:20;;;;;;;26.20;14.00;;;11.60;69.90;;;;;;5031213;28;20403;-76
2021/10/08 07:59:45;;;;;;;26.50;14.37;;;11.80;66.50;;;;;;5030240;28;20402;-77
2021/10/08 08:02:11;;;;;;;23.63;14.02;;;11.90;62.90;;;;;;5035067;28;20383;-77
2021/10/08 08:04:37;;;;;;;26.00;14.20;;;12.10;62.00;;;;;;5031563;28;20502;-77
2021/10/08 08:07:06;;;;;;;26.47;15.37;;;12.10;61.40;;;;;;5031514;28;20502;-76
2021/10/08 08:09:32;;;;;;;25.27;14.18;;;12.10;62.70;;;;;;5028497;28;20418;-74
2021/10/08 08:11:58;;;;;;;22.90;14.68;;;12.10;63.50;;;;;;5029003;28;20500;-75
2021/10/08 08:14:23;;;;;;;24.38;14.05;;;12.30;60.60;;;;;;5019996;28;20404;-73
2021/10/08 08:16:49;;;;;;;24.27;13.60;;;12.50;57.50;;;;;;5030283;28;20488;-74
2021/10/08 08:19:15;;;;;;;29.47;15.27;;;12.60;57.30;;;;;;5023393;28;20430;-73
2021/10/08 08:21:42;;;;;;;26.30;14.77;;;12.60;57.90;;;;;;5027479;28;20959;-74
2021/10/08 08:24:08;;;;;;;26.60;14.85;;;12.60;59.10;;;;;;5026480;28;20441;-74
2021/10/08 08:26:35;;;;;;;23.23;15.07;;;12.80;57.20;;;;;;5029847;28;20431;-75
2021/10/08 08:29:01;;;;;;;23.80;14.65;;;13.00;55.40;;;;;;5026032;28;20399;-77
2021/10/08 08:31:27;;;;;;;26.90;13.70;;;13.20;54.00;;;;;;5029257;28;20403;-72
2021/10/08 08:33:52;;;;;;;29.27;15.60;;;13.30;53.10;;;;;;5020227;28;20410;-75
2021/10/08 08:36:18;;;;;;;25.30;14.23;;;13.30;56.00;;;;;;5019707;28;20446;-75
2021/10/08 08:38:45;;;;;;;25.17;15.02;;;13.20;59.90;;;;;;5031775;28;21582;-74
2021/10/08 08:41:11;;;;;;;21.70;15.33;;;13.20;60.20;;;;;;5027339;28;20490;-74
2021/10/08 08:43:37;;;;;;;28.70;16.05;;;13.30;58.90;;;;;;5025305;28;20920;-74
2021/10/08 08:46:03;;;;;;;24.20;15.53;;;13.50;56.90;;;;;;5020540;28;20395;-75
2021/10/08 08:48:29;;;;;;;25.88;13.73;;;13.60;58.10;;;;;;5029396;28;20489;-75
2021/10/08 08:50:54;;;;;;;28.10;14.40;;;14.00;50.40;;;;;;5030126;28;20518;-75
2021/10/08 08:53:21;;;;;;;20.98;13.30;;;14.10;50.30;;;;;;5031111;28;20379;-76
2021/10/08 08:55:51;;;;;;;23.33;12.85;;;14.20;48.30;;;;;;5032763;28;20411;-74
2021/10/08 08:58:18;;;;;;;28.25;13.38;;;14.30;46.80;;;;;;5032815;28;20390;-76
2021/10/08 09:00:46;;;;;;;21.40;12.55;;;14.40;46.90;;;;;;5032019;28;20406;-75
2021/10/08 09:03:14;;;;;;;18.75;12.43;;;14.50;46.90;;;;;;5032514;28;20379;-73
2021/10/08 09:05:46;;;;;;;22.52;12.70;;;14.50;48.00;;;;;;5032921;28;20827;-76
2021/10/08 09:08:13;;;;;;;13.20;8.52;;;14.60;47.10;;;;;;5031892;28;20509;-76
2021/10/08 09:10:41;;;;;;;16.75;8.65;;;14.70;43.90;;;;;;5031224;28;20387;-75
2021/10/08 09:13:07;;;;;;;14.90;9.27;;;14.70;43.40;;;;;;5031633;28;20406;-77
2021/10/08 09:15:56;;;;;;;11.55;8.60;;;14.80;44.00;;;;;;5029357;28;20765;-73
2021/10/08 09:18:33;;;;;;;9.85;7.72;;;14.90;43.40;;;;;;5029270;28;20799;-75
2021/10/08 09:21:13;;;;;;;11.30;8.00;;;14.90;43.40;;;;;;5028290;28;21114;-75
2021/10/08 09:23:47;;;;;;;11.98;7.20;;;14.90;44.30;;;;;;5030296;28;20395;-76
2021/10/08 09:26:25;;;;;;;12.40;7.15;;;15.00;43.60;;;;;;5030405;28;20403;-76
2021/10/08 09:29:06;;;;;;;13.13;6.93;;;15.00;43.90;;;;;;5031909;28;20674;-75
2021/10/08 09:31:41;;;;;;;10.60;7.32;;;15.00;43.20;;;;;;5035270;28;20405;-75
2021/10/08 09:34:25;;;;;;;8.88;6.70;;;15.10;43.20;;;;;;5035735;28;20398;-76
2021/10/08 09:37:03;;;;;;;14.30;7.30;;;15.30;43.10;;;;;;5029602;28;20505;-75
2021/10/08 09:39:32;;;;;;;10.13;6.85;;;15.40;43.40;;;;;;5036936;28;20730;-75
2021/10/08 09:42:12;;;;;;;10.90;6.10;;;15.50;42.80;;;;;;5038583;28;20394;-75
2021/10/08 09:44:49;;;;;;;10.85;5.65;;;15.60;41.30;;;;;;5017837;28;20387;-74
2021/10/08 09:47:18;;;;;;;43.40;8.30;;;15.70;40.20;;;;;;5032377;28;20912;-75
2021/10/08 09:49:46;;;;;;;9.60;5.90;;;15.80;41.40;;;;;;5036820;28;20394;-76
2021/10/08 09:52:21;;;;;;;5.80;4.50;;;15.90;40.30;;;;;;5036809;28;20386;-75
2021/10/08 09:54:51;;;;;;;6.43;5.03;;;16.00;35.90;;;;;;5036439;28;20415;-73
2021/10/08 09:57:18;;;;;;;5.72;4.35;;;16.10;35.50;;;;;;5036285;28;20401;-74
2021/10/08 09:59:46;;;;;;;6.65;5.30;;;16.20;37.20;;;;;;5036003;28;20407;-75
2021/10/08 10:02:11;;;;;;;5.20;4.65;;;16.10;36.80;;;;;;5030521;28;20406;-76
2021/10/08 10:04:48;;;;;;;4.77;4.20;;;16.30;35.50;;;;;;5040182;28;20869;-76
2021/10/08 10:07:18;;;;;;;8.65;4.82;;;16.40;33.80;;;;;;5026622;28;20423;-75
2021/10/08 10:09:45;;;;;;;6.80;4.30;;;16.40;34.30;;;;;;5015768;28;20388;-74
2021/10/08 10:12:14;;;;;;;6.53;4.00;;;16.40;34.90;;;;;;5026822;28;20407;-74
2021/10/08 10:14:43;;;;;;;5.65;4.22;;;16.50;33.70;;;;;;5035110;28;20477;-77
2021/10/08 10:17:09;;;;;;;5.28;4.00;;;16.50;34.40;;;;;;5033717;28;20548;-76
2021/10/08 10:19:38;;;;;;;4.50;3.50;;;16.60;33.90;;;;;;5034344;28;20418;-75
2021/10/08 10:22:04;;;;;;;6.20;4.10;;;16.80;32.90;;;;;;5040400;28;20381;-75
2021/10/08 10:24:30;;;;;;;15.88;3.70;;;16.80;33.10;;;;;;5049174;28;20401;-75
2021/10/08 10:26:56;;;;;;;4.17;3.60;;;16.80;33.10;;;;;;5034342;28;20865;-75
2021/10/08 10:29:22;;;;;;;3.80;3.50;;;16.90;33.10;;;;;;5034265;28;20399;-75
2021/10/08 10:31:49;;;;;;;6.82;2.80;;;16.90;32.10;;;;;;5034224;28;20494;-75
2021/10/08 10:34:15;;;;;;;5.75;4.07;;;16.90;31.70;;;;;;5034881;28;20411;-76
2021/10/08 10:36:42;;;;;;;4.65;3.63;;;17.00;28.60;;;;;;5031773;28;20422;-75
2021/10/08 10:39:15;;;;;;;6.17;3.90;;;17.10;28.00;;;;;;5037756;28;20394;-76
2021/10/08 10:42:13;;;;;;;5.90;4.43;;;17.10;28.00;;;;;;5033594;28;20387;-77
2021/10/08 10:45:07;;;;;;;4.70;3.50;;;17.00;28.40;;;;;;5038327;28;20445;-77
2021/10/08 10:47:36;;;;;;;6.07;3.80;;;17.00;27.40;;;;;;5043945;28;20437;-77
2021/10/08 10:50:10;;;;;;;7.63;4.20;;;17.10;27.90;;;;;;5044285;28;20406;-77
2021/10/08 10:52:47;;;;;;;6.63;3.85;;;17.00;29.10;;;;;;5021892;28;20389;-76
2021/10/08 10:55:14;;;;;;;5.07;3.70;;;17.20;28.20;;;;;;5038234;28;20440;-77
2021/10/08 10:57:39;;;;;;;4.10;3.33;;;17.20;26.80;;;;;;5035213;28;20385;-77
2021/10/08 11:00:33;;;;;;;5.27;3.83;;;17.10;26.90;;;;;;5025281;28;20418;-75
2021/10/08 11:03:01;;;;;;;5.53;3.60;;;17.00;27.90;;;;;;5036469;28;20396;-76
2021/10/08 11:05:28;;;;;;;4.10;3.70;;;17.00;25.80;;;;;;5040972;28;20490;-77
2021/10/08 11:08:08;;;;;;;6.65;4.22;;;17.10;28.00;;;;;;5041482;28;20395;-76
2021/10/08 11:10:36;;;;;;;5.10;4.18;;;17.20;28.90;;;;;;5033187;28;20391;-77
2021/10/08 11:13:27;;;;;;;5.03;4.00;;;17.20;29.40;;;;;;5041490;28;20433;-77
2021/10/08 11:16:07;;;;;;;4.97;4.10;;;17.10;30.00;;;;;;5024564;28;20403;-76
2021/10/08 11:18:51;;;;;;;5.13;4.13;;;17.20;30.30;;;;;;5020881;28;20399;-77
2021/10/08 11:21:34;;;;;;;7.10;4.30;;;17.10;30.60;;;;;;5036334;28;20395;-77
2021/10/08 11:24:13;;;;;;;4.80;4.03;;;17.10;31.80;;;;;;5036035;28;20403;-76
2021/10/08 11:26:40;;;;;;;5.57;4.63;;;17.20;31.20;;;;;;5043950;28;20405;-75
2021/10/08 11:29:06;;;;;;;7.43;4.80;;;17.30;30.60;;;;;;5045631;28;20562;-75
2021/10/08 11:31:31;;;;;;;4.90;4.10;;;17.40;30.00;;;;;;5038780;28;20529;-75
2021/10/08 11:33:58;;;;;;;9.73;3.80;;;17.40;29.30;;;;;;5037212;28;20496;-75
2021/10/08 11:36:31;;;;;;;6.57;4.18;;;17.50;29.90;;;;;;5032467;28;20415;-76
2021/10/08 11:39:09;;;;;;;7.73;4.77;;;17.60;29.90;;;;;;5026870;28;20512;-75
2021/10/08 11:41:35;;;;;;;11.23;4.65;;;17.70;29.50;;;;;;5015582;28;20400;-75
2021/10/08 11:44:29;;;;;;;8.30;4.95;;;17.70;28.70;;;;;;5040057;28;20399;-74
2021/10/08 11:52:35;;;;;;;10.32;4.82;;;17.70;29.00;;;;;;5026096;28;20394;-73
2021/10/08 11:55:07;;;;;;;7.63;4.50;;;17.70;29.60;;;;;;5030898;28;20399;-75
2021/10/08 11:58:08;;;;;;;6.70;4.20;;;17.80;28.80;;;;;;5013721;28;20412;-77
2021/10/08 12:00:37;;;;;;;6.57;4.53;;;17.80;28.50;;;;;;5007181;28;20410;-76
2021/10/08 12:03:06;;;;;;;7.03;4.00;;;17.80;28.50;;;;;;5022326;28;20395;-76
2021/10/08 12:05:40;;;;;;;5.25;4.10;;;17.90;28.80;;;;;;5031759;28;20692;-77
2021/10/08 12:08:07;;;;;;;6.00;3.50;;;18.00;26.70;;;;;;5034440;28;20397;-76
2021/10/08 12:10:32;;;;;;;8.05;4.05;;;18.00;27.80;;;;;;5033024;28;20387;-77
2021/10/08 12:12:59;;;;;;;5.43;3.80;;;17.90;27.40;;;;;;5038305;28;20405;-77
2021/10/08 12:15:27;;;;;;;5.63;4.47;;;18.00;27.10;;;;;;5035834;28;20729;-77
2021/10/08 12:17:55;;;;;;;5.63;4.00;;;18.00;27.10;;;;;;5033538;28;20383;-76
2021/10/08 12:20:30;;;;;;;8.48;4.57;;;18.00;26.70;;;;;;5032559;28;20442;-76
2021/10/08 12:23:23;;;;;;;4.38;3.90;;;17.90;27.00;;;;;;5041224;28;20890;-75
2021/10/08 12:25:52;;;;;;;5.10;4.18;;;18.00;26.70;;;;;;5029699;28;20432;-76
2021/10/08 12:28:23;;;;;;;6.25;3.85;;;18.20;27.10;;;;;;5010593;28;20396;-76
2021/10/08 12:30:52;;;;;;;3.80;3.50;;;18.10;26.10;;;;;;5031778;28;20418;-77
2021/10/08 12:33:27;;;;;;;5.22;4.30;;;18.20;28.40;;;;;;5032162;28;20481;-77
2021/10/08 12:36:26;;;;;;;7.07;4.20;;;18.30;27.40;;;;;;5031728;28;21001;-75
2021/10/08 12:38:56;;;;;;;10.00;3.80;;;18.40;26.00;;;;;;5016520;28;20435;-76
2021/10/08 12:41:36;;;;;;;7.45;4.40;;;18.30;26.10;;;;;;5011228;28;20761;-76
2021/10/08 12:44:11;;;;;;;8.25;4.70;;;18.20;26.40;;;;;;5027647;28;20470;-76
2021/10/08 12:46:39;;;;;;;6.78;4.25;;;18.40;27.20;;;;;;5030525;28;20395;-76